createdAt,value
2023-05-10T00:02:25.645Z,21.42
2023-05-10T00:04:52.274Z,21.42
2023-05-10T00:07:18.759Z,21.44
2023-05-10T00:09:45.291Z,21.42
2023-05-10T00:12:11.633Z,21.42
2023-05-10T00:14:37.992Z,21.44
2023-05-10T00:17:04.396Z,21.43
2023-05-10T00:19:30.902Z,21.44
2023-05-10T00:21:57.317Z,21.47
2023-05-10T00:24:23.687Z,21.48
2023-05-10T00:26:51.918Z,21.45
2023-05-10T00:29:18.469Z,21.46
2023-05-10T00:31:44.889Z,21.46
2023-05-10T00:34:11.301Z,21.46
2023-05-10T00:36:37.756Z,21.46
2023-05-10T00:39:04.639Z,21.44
2023-05-10T00:41:33.718Z,21.45
2023-05-10T00:44:00.201Z,21.45
2023-05-10T00:46:26.968Z,21.45
2023-05-10T00:48:53.775Z,21.44
2023-05-10T00:51:20.174Z,21.42
2023-05-10T00:53:47.123Z,21.43
2023-05-10T00:56:13.973Z,21.42
2023-05-10T00:58:40.835Z,21.43
2023-05-10T01:01:07.893Z,21.43
2023-05-10T01:03:34.456Z,21.42
2023-05-10T01:06:00.996Z,21.44
2023-05-10T01:08:27.779Z,21.43
2023-05-10T01:10:54.821Z,21.42
2023-05-10T01:13:31.703Z,21.46
2023-05-10T01:15:58.677Z,21.48
2023-05-10T01:18:25.992Z,21.50
2023-05-10T01:21:00.231Z,21.49
2023-05-10T01:23:46.824Z,21.47
2023-05-10T01:26:26.644Z,21.47
2023-05-10T01:28:58.796Z,21.47
2023-05-10T01:31:31.334Z,21.48
2023-05-10T01:34:03.424Z,21.47
2023-05-10T01:36:29.789Z,21.45
2023-05-10T01:39:08.490Z,21.47
2023-05-10T01:41:41.034Z,21.47
2023-05-10T01:44:32.272Z,21.46
2023-05-10T01:47:18.287Z,21.45
2023-05-10T01:49:47.754Z,21.43
2023-05-10T01:52:16.847Z,21.43
2023-05-10T01:54:45.718Z,21.44
2023-05-10T01:57:15.039Z,21.43
2023-05-10T01:59:44.466Z,21.41
2023-05-10T02:02:13.108Z,21.41
2023-05-10T02:04:40.733Z,21.41
2023-05-10T02:07:07.759Z,21.35
2023-05-10T02:09:35.642Z,21.37
2023-05-10T02:12:03.644Z,21.37
2023-05-10T02:14:31.694Z,21.35
2023-05-10T02:16:59.551Z,21.36
2023-05-10T02:19:27.130Z,21.35
2023-05-10T02:21:53.955Z,21.35
2023-05-10T02:24:21.061Z,21.35
2023-05-10T02:26:48.682Z,21.35
2023-05-10T02:29:15.616Z,21.35
2023-05-10T02:31:44.568Z,21.34
2023-05-10T02:34:11.453Z,21.32
2023-05-10T02:36:39.596Z,21.28
2023-05-10T02:39:10.550Z,21.27
2023-05-10T02:41:37.873Z,21.28
2023-05-10T02:44:07.756Z,21.26
2023-05-10T02:46:34.463Z,21.28
2023-05-10T02:49:01.947Z,21.28
2023-05-10T02:51:32.931Z,21.28
2023-05-10T02:54:02.268Z,21.30
2023-05-10T02:56:33.958Z,21.30
2023-05-10T02:59:00.365Z,21.31
2023-05-10T03:01:26.787Z,21.30
2023-05-10T03:03:53.214Z,21.31
2023-05-10T03:06:19.716Z,21.29
2023-05-10T03:08:46.273Z,21.31
2023-05-10T03:11:33.220Z,21.30
2023-05-10T03:14:11.105Z,21.33
2023-05-10T03:16:44.806Z,21.33
2023-05-10T03:19:23.461Z,21.31
2023-05-10T03:21:51.840Z,21.31
2023-05-10T03:24:21.309Z,21.32
2023-05-10T03:26:48.272Z,21.32
2023-05-10T03:29:15.819Z,21.34
2023-05-10T03:31:42.630Z,21.34
2023-05-10T03:34:09.163Z,21.34
2023-05-10T03:36:35.476Z,21.34
2023-05-10T03:39:01.837Z,21.36
2023-05-10T03:41:28.366Z,21.35
2023-05-10T03:43:54.710Z,21.34
2023-05-10T03:46:21.064Z,21.36
2023-05-10T03:48:47.509Z,21.36
2023-05-10T03:51:13.923Z,21.35
2023-05-10T03:53:40.269Z,21.33
2023-05-10T03:56:06.711Z,21.33
2023-05-10T03:58:33.051Z,21.34
2023-05-10T04:00:59.371Z,21.35
2023-05-10T04:03:26.888Z,21.34
2023-05-10T04:05:59.850Z,21.29
2023-05-10T04:08:26.275Z,21.30
2023-05-10T04:10:52.627Z,21.32
2023-05-10T04:13:19.966Z,21.32
2023-05-10T04:15:46.421Z,21.34
2023-05-10T04:18:12.754Z,21.33
2023-05-10T04:20:39.128Z,21.33
2023-05-10T04:23:05.511Z,21.30
2023-05-10T04:25:34.677Z,21.31
2023-05-10T04:28:01.038Z,21.31
2023-05-10T04:30:29.499Z,21.30
2023-05-10T04:32:55.879Z,21.31
2023-05-10T04:35:22.435Z,21.31
2023-05-10T04:37:48.782Z,21.29
2023-05-10T04:40:15.513Z,21.28
2023-05-10T04:42:44.828Z,21.27
2023-05-10T04:45:11.317Z,21.25
2023-05-10T04:47:40.557Z,21.27
2023-05-10T04:50:07.362Z,21.26
2023-05-10T04:52:33.803Z,21.29
2023-05-10T04:55:00.219Z,21.30
2023-05-10T04:57:26.616Z,21.31
2023-05-10T04:59:53.028Z,21.33
2023-05-10T05:02:19.459Z,21.33
2023-05-10T05:04:45.839Z,21.32
2023-05-10T05:07:12.267Z,21.32
2023-05-10T05:09:38.684Z,21.29
2023-05-10T05:12:05.225Z,21.29
2023-05-10T05:14:31.680Z,21.29
2023-05-10T05:16:58.589Z,21.30
2023-05-10T05:19:24.995Z,21.32
2023-05-10T05:21:51.417Z,21.33
2023-05-10T05:24:17.790Z,21.33
2023-05-10T05:26:44.129Z,21.36
2023-05-10T05:29:10.454Z,21.37
2023-05-10T05:31:36.975Z,21.36
2023-05-10T05:34:03.500Z,21.36
2023-05-10T05:36:29.849Z,21.34
2023-05-10T05:38:56.211Z,21.34
2023-05-10T05:41:22.745Z,21.35
2023-05-10T05:43:49.179Z,21.35
2023-05-10T05:46:15.767Z,21.36
2023-05-10T05:48:42.313Z,21.38
2023-05-10T05:51:08.634Z,21.40
2023-05-10T05:53:35.110Z,21.38
2023-05-10T05:56:01.586Z,21.42
2023-05-10T05:58:28.041Z,21.44
2023-05-10T06:00:54.375Z,21.44
2023-05-10T06:03:21.197Z,21.46
2023-05-10T06:05:47.894Z,21.48
2023-05-10T06:08:14.282Z,21.49
2023-05-10T06:10:40.710Z,21.50
2023-05-10T06:13:07.197Z,21.52
2023-05-10T06:15:33.738Z,21.53
2023-05-10T06:18:00.414Z,21.55
2023-05-10T06:20:27.061Z,21.56
2023-05-10T06:22:53.503Z,21.58
2023-05-10T06:25:19.913Z,21.62
2023-05-10T06:27:49.836Z,21.67
2023-05-10T06:30:18.422Z,21.73
2023-05-10T06:32:46.031Z,21.74
2023-05-10T06:35:12.476Z,21.73
2023-05-10T06:37:38.961Z,21.75
2023-05-10T06:40:06.232Z,21.76
2023-05-10T06:42:32.651Z,21.79
2023-05-10T06:44:59.024Z,21.80
2023-05-10T06:47:25.797Z,21.79
2023-05-10T06:49:52.191Z,21.79
2023-05-10T06:52:18.711Z,21.79
2023-05-10T06:54:45.397Z,21.78
2023-05-10T06:57:23.428Z,21.82
2023-05-10T06:59:57.564Z,21.81
2023-05-10T07:02:24.048Z,21.84
2023-05-10T07:04:51.306Z,21.84
2023-05-10T07:07:17.757Z,21.86
2023-05-10T07:09:44.178Z,21.86
2023-05-10T07:12:12.779Z,21.88
2023-05-10T07:14:40.994Z,21.88
2023-05-10T07:17:07.421Z,21.88
2023-05-10T07:19:33.830Z,21.91
2023-05-10T07:22:00.230Z,21.91
2023-05-10T07:24:26.560Z,21.91
2023-05-10T07:26:53.077Z,21.93
2023-05-10T07:29:19.496Z,21.94
2023-05-10T07:31:45.937Z,21.94
2023-05-10T07:34:12.319Z,21.94
2023-05-10T07:36:38.727Z,21.95
2023-05-10T07:39:05.166Z,21.97
2023-05-10T07:41:31.729Z,21.96
2023-05-10T07:43:58.289Z,21.98
2023-05-10T07:46:24.899Z,21.99
2023-05-10T07:48:51.293Z,22.00
2023-05-10T07:51:17.744Z,22.02
2023-05-10T07:53:44.203Z,22.02
2023-05-10T07:56:33.230Z,22.04
2023-05-10T07:59:00.186Z,22.04
2023-05-10T08:01:27.722Z,22.05
2023-05-10T08:03:54.592Z,22.06
2023-05-10T08:06:21.892Z,22.07
2023-05-10T08:08:50.710Z,22.08
2023-05-10T08:11:18.506Z,22.11
2023-05-10T08:13:49.248Z,22.13
2023-05-10T08:16:15.750Z,22.13
2023-05-10T08:18:42.256Z,22.15
2023-05-10T08:21:08.697Z,22.15
2023-05-10T08:23:35.124Z,22.14
2023-05-10T08:26:01.534Z,22.16
2023-05-10T08:28:28.414Z,22.16
2023-05-10T08:30:54.870Z,22.17
2023-05-10T08:33:21.347Z,22.18
2023-05-10T08:35:47.761Z,22.18
2023-05-10T08:38:14.099Z,22.19
2023-05-10T08:40:42.393Z,22.20
2023-05-10T08:43:09.828Z,22.21
2023-05-10T08:45:40.935Z,22.20
2023-05-10T08:48:08.144Z,22.22
2023-05-10T08:50:38.788Z,22.23
2023-05-10T08:53:06.296Z,22.24
2023-05-10T08:55:33.928Z,22.25
2023-05-10T08:58:03.310Z,22.26
2023-05-10T09:00:29.801Z,22.30
2023-05-10T09:02:56.694Z,22.32
2023-05-10T09:05:23.165Z,22.34
2023-05-10T09:07:49.594Z,22.36
2023-05-10T09:10:16.228Z,22.38
2023-05-10T09:12:42.753Z,22.37
2023-05-10T09:15:10.182Z,22.37
2023-05-10T09:17:37.156Z,22.37
2023-05-10T09:20:05.026Z,22.37
2023-05-10T09:22:31.735Z,22.37
2023-05-10T09:25:24.571Z,22.40
2023-05-10T09:27:51.243Z,22.40
2023-05-10T09:30:18.964Z,22.40
2023-05-10T09:32:46.668Z,22.42
2023-05-10T09:35:14.410Z,22.43
2023-05-10T09:37:42.508Z,22.43
2023-05-10T09:40:11.978Z,22.45
2023-05-10T09:42:38.348Z,22.48
2023-05-10T09:45:05.177Z,22.49
2023-05-10T09:47:37.744Z,22.51
2023-05-10T09:50:05.245Z,22.52
2023-05-10T09:52:32.185Z,22.50
2023-05-10T09:54:58.671Z,22.47
2023-05-10T09:57:26.479Z,22.48
2023-05-10T09:59:55.269Z,22.45
2023-05-10T10:02:22.252Z,22.45
2023-05-10T10:04:50.218Z,22.42
2023-05-10T10:07:23.007Z,22.42
2023-05-10T10:09:49.420Z,22.38
2023-05-10T10:12:15.738Z,22.37
2023-05-10T10:14:42.610Z,22.38
2023-05-10T10:17:09.608Z,22.36
2023-05-10T10:19:36.898Z,22.36
2023-05-10T10:22:03.857Z,22.36
2023-05-10T10:24:30.340Z,22.36
2023-05-10T10:26:58.418Z,22.35
2023-05-10T10:29:31.713Z,22.35
2023-05-10T10:32:20.628Z,22.35
2023-05-10T10:34:47.427Z,22.35
2023-05-10T10:37:13.819Z,22.35
2023-05-10T10:39:40.265Z,22.36
2023-05-10T10:42:06.651Z,22.38
2023-05-10T10:44:36.005Z,22.40
2023-05-10T10:47:03.678Z,22.38
2023-05-10T10:49:34.575Z,22.35
2023-05-10T10:52:21.480Z,22.34
2023-05-10T10:54:57.840Z,22.34
2023-05-10T10:57:24.205Z,22.34
2023-05-10T10:59:50.677Z,22.36
2023-05-10T11:02:55.886Z,22.35
2023-05-10T11:05:25.665Z,22.35
2023-05-10T11:07:55.959Z,22.36
2023-05-10T11:10:23.089Z,22.36
2023-05-10T11:13:21.924Z,22.36
2023-05-10T11:15:49.396Z,22.36
2023-05-10T11:18:19.410Z,22.36
2023-05-10T11:20:51.115Z,22.36
2023-05-10T11:23:18.899Z,22.36
2023-05-10T11:25:48.937Z,22.37
2023-05-10T11:28:15.378Z,22.38
2023-05-10T11:30:43.108Z,22.38
2023-05-10T11:33:09.920Z,22.37
2023-05-10T11:35:42.996Z,22.40
2023-05-10T11:38:10.584Z,22.41
2023-05-10T11:40:37.551Z,22.40
2023-05-10T11:43:04.547Z,22.42
2023-05-10T11:45:34.415Z,22.42
2023-05-10T11:48:01.234Z,22.44
2023-05-10T11:50:27.732Z,22.43
2023-05-10T11:52:54.766Z,22.45
2023-05-10T11:55:21.239Z,22.45
2023-05-10T11:57:47.741Z,22.45
2023-05-10T12:00:14.998Z,22.46
2023-05-10T12:02:42.009Z,22.46
2023-05-10T12:05:08.778Z,22.47
2023-05-10T12:07:35.974Z,22.46
2023-05-10T12:10:09.970Z,22.47
2023-05-10T12:12:37.880Z,22.48
2023-05-10T12:15:04.914Z,22.47
2023-05-10T12:17:31.284Z,22.48
2023-05-10T12:20:15.026Z,22.48
2023-05-10T12:22:41.574Z,22.50
2023-05-10T12:25:09.320Z,22.49
2023-05-10T12:27:36.152Z,22.50
2023-05-10T12:30:02.844Z,22.51
2023-05-10T12:32:39.625Z,22.51
2023-05-10T12:35:06.196Z,22.50
2023-05-10T12:37:36.735Z,22.51
2023-05-10T12:40:04.009Z,22.52
2023-05-10T12:42:31.091Z,22.53
2023-05-10T12:44:57.869Z,22.51
2023-05-10T12:47:24.370Z,22.52
2023-05-10T12:49:52.191Z,22.53
2023-05-10T12:52:18.582Z,22.53
2023-05-10T12:54:44.897Z,22.53
2023-05-10T12:57:11.355Z,22.54
2023-05-10T12:59:38.301Z,22.54
2023-05-10T13:02:04.895Z,22.54
2023-05-10T13:04:31.345Z,22.55
2023-05-10T13:06:59.973Z,22.56
2023-05-10T13:09:27.585Z,22.57
2023-05-10T13:11:56.730Z,22.58
2023-05-10T13:14:23.176Z,22.60
2023-05-10T13:16:49.687Z,22.59
2023-05-10T13:19:16.988Z,22.61
2023-05-10T13:21:43.687Z,22.61
2023-05-10T13:24:10.165Z,22.62
2023-05-10T13:26:37.244Z,22.63
2023-05-10T13:29:04.149Z,22.66
2023-05-10T13:31:30.689Z,22.66
2023-05-10T13:33:57.294Z,22.66
2023-05-10T13:36:23.860Z,22.67
2023-05-10T13:38:50.253Z,22.65
2023-05-10T13:41:16.635Z,22.66
2023-05-10T13:43:43.067Z,22.66
2023-05-10T13:46:09.507Z,22.65
2023-05-10T13:48:39.180Z,22.66
2023-05-10T13:51:05.702Z,22.65
2023-05-10T13:53:32.151Z,22.63
2023-05-10T13:55:58.659Z,22.63
2023-05-10T13:58:25.107Z,22.62
2023-05-10T14:00:51.496Z,22.62
2023-05-10T14:03:18.115Z,22.62
2023-05-10T14:05:46.007Z,22.61
2023-05-10T14:08:14.152Z,22.62
2023-05-10T14:10:40.627Z,22.62
2023-05-10T14:13:07.455Z,22.63
2023-05-10T14:15:33.865Z,22.63
2023-05-10T14:18:00.579Z,22.63
2023-05-10T14:20:27.033Z,22.62
2023-05-10T14:22:53.428Z,22.64
2023-05-10T14:25:20.008Z,22.63
2023-05-10T14:27:46.603Z,22.63
2023-05-10T14:30:13.141Z,22.64
2023-05-10T14:32:39.676Z,22.65
2023-05-10T14:35:07.082Z,22.63
2023-05-10T14:37:33.726Z,22.63
2023-05-10T14:40:00.250Z,22.65
2023-05-10T14:42:26.795Z,22.66
2023-05-10T14:44:53.245Z,22.67
2023-05-10T14:47:19.653Z,22.69
2023-05-10T14:49:46.059Z,22.69
2023-05-10T14:52:13.320Z,22.71
2023-05-10T14:54:40.014Z,22.71
2023-05-10T14:57:07.424Z,22.70
2023-05-10T14:59:33.796Z,22.71
2023-05-10T15:02:00.669Z,22.72
2023-05-10T15:04:29.194Z,22.71
2023-05-10T15:07:00.133Z,22.72
2023-05-10T15:09:28.458Z,22.75
2023-05-10T15:11:55.364Z,22.74
2023-05-10T15:14:21.798Z,22.74
2023-05-10T15:16:48.157Z,22.71
2023-05-10T15:19:14.511Z,22.69
2023-05-10T15:21:43.458Z,22.68
2023-05-10T15:24:10.576Z,22.67
2023-05-10T15:26:36.946Z,22.66
2023-05-10T15:29:03.371Z,22.65
2023-05-10T15:31:29.811Z,22.65
2023-05-10T15:34:02.037Z,22.64
2023-05-10T15:36:28.443Z,22.65
2023-05-10T15:38:55.578Z,22.63
2023-05-10T15:41:21.881Z,22.62
2023-05-10T15:43:48.243Z,22.62
2023-05-10T15:46:14.580Z,22.63
2023-05-10T15:48:40.990Z,22.62
2023-05-10T15:51:07.365Z,22.65
2023-05-10T15:53:33.703Z,22.67
2023-05-10T15:56:00.106Z,22.68
2023-05-10T15:58:26.498Z,22.69
2023-05-10T16:00:52.962Z,22.69
2023-05-10T16:03:19.366Z,22.69
2023-05-10T16:05:45.794Z,22.69
2023-05-10T16:08:12.159Z,22.70
2023-05-10T16:10:38.704Z,22.70
2023-05-10T16:13:05.165Z,22.71
2023-05-10T16:15:31.570Z,22.72
2023-05-10T16:17:58.104Z,22.72
2023-05-10T16:20:24.838Z,22.74
2023-05-10T16:22:51.287Z,22.73
2023-05-10T16:25:17.915Z,22.71
2023-05-10T16:27:44.701Z,22.72
2023-05-10T16:30:11.242Z,22.73
2023-05-10T16:32:37.751Z,22.72
2023-05-10T16:35:04.819Z,22.74
2023-05-10T16:37:31.298Z,22.74
2023-05-10T16:39:57.777Z,22.74
2023-05-10T16:42:25.133Z,22.74
2023-05-10T16:44:51.558Z,22.74
2023-05-10T16:47:18.174Z,22.73
2023-05-10T16:49:44.575Z,22.75
2023-05-10T16:52:11.135Z,22.75
2023-05-10T16:54:37.517Z,22.73
2023-05-10T16:57:03.924Z,22.72
2023-05-10T16:59:30.318Z,22.71
2023-05-10T17:01:56.799Z,22.72
2023-05-10T17:04:23.259Z,22.73
2023-05-10T17:06:49.608Z,22.74
2023-05-10T17:09:15.948Z,22.74
2023-05-10T17:11:42.347Z,22.75
2023-05-10T17:14:08.732Z,22.73
2023-05-10T17:16:35.818Z,22.73
2023-05-10T17:19:02.370Z,22.71
2023-05-10T17:21:28.736Z,22.71
2023-05-10T17:23:55.098Z,22.71
2023-05-10T17:26:22.408Z,22.72
2023-05-10T17:28:48.780Z,22.71
2023-05-10T17:31:15.265Z,22.73
2023-05-10T17:33:42.139Z,22.72
2023-05-10T17:36:08.740Z,22.71
2023-05-10T17:38:35.948Z,22.70
2023-05-10T17:41:02.315Z,22.71
2023-05-10T17:43:28.729Z,22.69
2023-05-10T17:45:55.218Z,22.67
2023-05-10T17:48:21.976Z,22.67
2023-05-10T17:50:49.913Z,22.66
2023-05-10T17:53:16.374Z,22.64
2023-05-10T17:55:43.672Z,22.65
2023-05-10T17:58:11.288Z,22.66
2023-05-10T18:00:38.333Z,22.67
2023-05-10T18:03:05.447Z,22.67
2023-05-10T18:05:35.397Z,22.65
2023-05-10T18:08:01.957Z,22.66
2023-05-10T18:10:28.376Z,22.65
2023-05-10T18:12:54.713Z,22.66
2023-05-10T18:15:21.148Z,22.65
2023-05-10T18:17:49.181Z,22.65
2023-05-10T18:20:15.592Z,22.65
2023-05-10T18:22:41.973Z,22.65
2023-05-10T18:25:08.584Z,22.63
2023-05-10T18:27:35.067Z,22.63
2023-05-10T18:30:01.494Z,22.64
2023-05-10T18:32:28.095Z,22.65
2023-05-10T18:34:55.778Z,22.64
2023-05-10T18:37:22.487Z,22.63
2023-05-10T18:39:48.912Z,22.62
2023-05-10T18:42:15.347Z,22.62
2023-05-10T18:44:41.750Z,22.62
2023-05-10T18:47:08.290Z,22.61
2023-05-10T18:49:34.674Z,22.60
2023-05-10T18:52:01.065Z,22.60
2023-05-10T18:54:27.506Z,22.61
2023-05-10T18:56:53.936Z,22.60
2023-05-10T18:59:20.356Z,22.60
2023-05-10T19:01:47.214Z,22.60
2023-05-10T19:04:14.880Z,22.60
2023-05-10T19:06:42.006Z,22.60
2023-05-10T19:09:08.964Z,22.60
2023-05-10T19:11:35.949Z,22.59
2023-05-10T19:14:02.509Z,22.60
2023-05-10T19:16:30.585Z,22.60
2023-05-10T19:18:57.462Z,22.59
2023-05-10T19:21:24.017Z,22.60
2023-05-10T19:23:50.592Z,22.60
2023-05-10T19:26:17.104Z,22.60
2023-05-10T19:28:43.965Z,22.59
2023-05-10T19:31:10.618Z,22.61
2023-05-10T19:33:38.338Z,22.61
2023-05-10T19:36:05.163Z,22.60
2023-05-10T19:38:31.533Z,22.61
2023-05-10T19:40:58.547Z,22.60
2023-05-10T19:43:25.538Z,22.61
2023-05-10T19:45:51.978Z,22.60
2023-05-10T19:48:18.491Z,22.59
2023-05-10T19:50:44.846Z,22.60
2023-05-10T19:53:11.387Z,22.61
2023-05-10T19:55:38.026Z,22.60
2023-05-10T19:58:05.278Z,22.60
2023-05-10T20:00:31.779Z,22.60
2023-05-10T20:02:58.292Z,22.59
2023-05-10T20:05:24.771Z,22.59
2023-05-10T20:07:51.250Z,22.59
2023-05-10T20:10:18.269Z,22.57
2023-05-10T20:12:51.373Z,22.58
2023-05-10T20:15:21.981Z,22.56
2023-05-10T20:17:49.159Z,22.57
2023-05-10T20:20:18.587Z,22.57
2023-05-10T20:22:45.316Z,22.57
2023-05-10T20:25:12.432Z,22.56
2023-05-10T20:27:38.902Z,22.56
2023-05-10T20:30:06.017Z,22.56
2023-05-10T20:32:32.510Z,22.56
2023-05-10T20:34:58.984Z,22.56
2023-05-10T20:37:27.361Z,22.55
2023-05-10T20:39:54.127Z,22.56
2023-05-10T20:42:21.359Z,22.54
2023-05-10T20:44:47.697Z,22.53
2023-05-10T20:47:14.652Z,22.53
2023-05-10T20:49:41.168Z,22.53
2023-05-10T20:52:07.675Z,22.53
2023-05-10T20:54:34.036Z,22.53
2023-05-10T20:57:02.024Z,22.54
2023-05-10T20:59:28.783Z,22.53
2023-05-10T21:01:56.754Z,22.51
2023-05-10T21:04:23.150Z,22.53
2023-05-10T21:06:49.555Z,22.52
2023-05-10T21:09:17.462Z,22.51
2023-05-10T21:11:44.160Z,22.50
2023-05-10T21:14:10.612Z,22.50
2023-05-10T21:16:37.016Z,22.50
2023-05-10T21:19:03.569Z,22.50
2023-05-10T21:21:30.017Z,22.53
2023-05-10T21:23:56.351Z,22.54
2023-05-10T21:26:23.367Z,22.57
2023-05-10T21:28:49.799Z,22.58
2023-05-10T21:31:16.212Z,22.61
2023-05-10T21:33:42.575Z,22.66
2023-05-10T21:36:09.560Z,22.68
2023-05-10T21:38:36.178Z,22.70
2023-05-10T21:41:06.172Z,22.73
2023-05-10T21:43:32.525Z,22.75
2023-05-10T21:45:59.055Z,22.76
2023-05-10T21:48:25.718Z,22.77
2023-05-10T21:50:52.421Z,22.77
2023-05-10T21:53:18.811Z,22.80
2023-05-10T21:55:45.237Z,22.80
2023-05-10T21:58:11.654Z,22.82
2023-05-10T22:00:38.069Z,22.81
2023-05-10T22:03:04.564Z,22.83
2023-05-10T22:05:31.098Z,22.84
2023-05-10T22:07:57.582Z,22.85
2023-05-10T22:10:23.966Z,22.84
2023-05-10T22:12:50.468Z,22.85
2023-05-10T22:15:17.129Z,22.85
2023-05-10T22:17:43.504Z,22.84
2023-05-10T22:20:10.028Z,22.85
2023-05-10T22:22:36.787Z,22.84
2023-05-10T22:25:04.011Z,22.85
2023-05-10T22:27:30.399Z,22.85
2023-05-10T22:29:56.837Z,22.85
2023-05-10T22:32:23.295Z,22.85
2023-05-10T22:34:49.753Z,22.87
2023-05-10T22:37:18.063Z,22.85
2023-05-10T22:39:48.650Z,22.86
2023-05-10T22:42:15.068Z,22.87
2023-05-10T22:44:41.767Z,22.85
2023-05-10T22:47:09.063Z,22.85
2023-05-10T22:49:35.472Z,22.87
2023-05-10T22:52:01.839Z,22.88
2023-05-10T22:54:28.252Z,22.87
2023-05-10T22:56:54.655Z,22.90
2023-05-10T22:59:21.153Z,22.90
2023-05-10T23:01:49.015Z,22.90
2023-05-10T23:04:15.788Z,22.91
2023-05-10T23:06:42.274Z,22.92
2023-05-10T23:09:08.972Z,22.91
2023-05-10T23:11:35.386Z,22.91
2023-05-10T23:14:01.918Z,22.93
2023-05-10T23:16:28.327Z,22.92
2023-05-10T23:18:54.862Z,22.92
2023-05-10T23:21:21.528Z,22.92
2023-05-10T23:23:48.016Z,22.92
2023-05-10T23:26:14.457Z,22.90
2023-05-10T23:28:41.085Z,22.91
2023-05-10T23:31:07.416Z,22.92
2023-05-10T23:33:33.756Z,22.94
2023-05-10T23:36:00.203Z,22.94
2023-05-10T23:38:26.978Z,22.95
2023-05-10T23:40:53.486Z,22.94
2023-05-10T23:43:20.819Z,22.95
2023-05-10T23:45:54.120Z,22.94
2023-05-10T23:48:20.725Z,22.95
2023-05-10T23:50:47.471Z,22.95
2023-05-10T23:53:13.846Z,22.95
2023-05-10T23:55:40.285Z,22.95
2023-05-10T23:58:06.961Z,22.95
